Wetterstation Vordersexau
Wetterdaten: Mrz 2015
Datum Temp. A. Feuchte A. Luftdruck Regen Wind Richtung Taupunkt Windchill Windben
01.03.2015 7,7 C 78 % 1008,4 hPa 0,8 l/m 15,9 km/h S-SO 4,1 C 2,6 C 8,9 km/h
02.03.2015 7,3 C 76 % 1009,6 hPa 2,5 l/m 10,4 km/h W-NW 1,4 C 4,1 C 5,8 km/h
03.03.2015 6,5 C 69 % 1020,0 hPa 0,0 l/m 10,1 km/h NO 0,8 C 3,7 C 5,6 km/h
04.03.2015 5,2 C 71 % 1025,1 hPa 0,4 l/m 0,9 km/h O-NO 0,0 C 5,2 C 0,5 km/h
05.03.2015 3,8 C 71 % 1033,0 hPa 0,0 l/m 0,7 km/h N-NO -1,4 C 3,7 C 0,4 km/h
06.03.2015 5,5 C 67 % 1033,4 hPa 0,0 l/m 0,6 km/h SO -0,8 C 5,4 C 0,3 km/h
07.03.2015 5,6 C 70 % 1028,8 hPa 0,0 l/m 0,0 km/h W-NW -0,2 C 5,6 C 0,0 km/h
08.03.2015 7,7 C 70 % 1022,5 hPa 0,0 l/m 1,3 km/h W-NW 2,0 C 7,5 C 0,7 km/h
09.03.2015 9,0 C 70 % 1022,4 hPa 0,0 l/m 0,1 km/h W-NW 3,2 C 9,0 C 0,0 km/h
10.03.2015 9,6 C 70 % 1024,1 hPa 0,0 l/m 0,0 km/h N 3,9 C 9,6 C 0,0 km/h
11.03.2015 8,5 C 68 % 1025,0 hPa 0,0 l/m 1,2 km/h N-NO 2,3 C 8,4 C 0,7 km/h
12.03.2015 6,3 C 60 % 1023,7 hPa 0,0 l/m 0,6 km/h NO -1,9 C 6,3 C 0,3 km/h
13.03.2015 6,6 C 65 % 1017,8 hPa 0,0 l/m 0,4 km/h O-SO -0,2 C 6,5 C 0,2 km/h
14.03.2015 6,3 C 63 % 1018,6 hPa 0,0 l/m 0,4 km/h NW -1,0 C 6,3 C 0,2 km/h
15.03.2015 5,6 C 68 % 1018,2 hPa 0,0 l/m 1,8 km/h O-NO -0,4 C 5,3 C 1,0 km/h
16.03.2015 6,3 C 73 % 1018,6 hPa 0,0 l/m 0,5 km/h O-NO 1,4 C 6,2 C 0,3 km/h
17.03.2015 9,9 C 68 % 1019,5 hPa 0,0 l/m 0,2 km/h W-NW 3,4 C 9,9 C 0,1 km/h
18.03.2015 11,1 C 69 % 1020,9 hPa 0,0 l/m 0,1 km/h S-SW 5,0 C 11,1 C 0,1 km/h
19.03.2015 9,6 C 72 % 1020,8 hPa 0,0 l/m 1,3 km/h NO 4,4 C 9,3 C 0,8 km/h
20.03.2015 8,4 C 68 % 1018,8 hPa 0,0 l/m 1,6 km/h W-NW 2,3 C 8,3 C 0,9 km/h
21.03.2015 7,6 C 71 % 1014,5 hPa 0,0 l/m 2,2 km/h N-NO 2,4 C 7,0 C 1,2 km/h
22.03.2015 7,4 C 68 % 1015,6 hPa 0,0 l/m 0,6 km/h N-NO 1,8 C 7,3 C 0,3 km/h
23.03.2015 10,1 C 64 % 1012,7 hPa 0,0 l/m 0,8 km/h SO 2,8 C 10,0 C 0,5 km/h
24.03.2015 10,9 C 64 % 1005,2 hPa 0,0 l/m 1,3 km/h O-NO 3,3 C 10,8 C 0,7 km/h
25.03.2015 8,5 C 75 % 1002,6 hPa 2,1 l/m 1,3 km/h N-NO 4,2 C 8,2 C 0,7 km/h
26.03.2015 6,3 C 82 % 1008,5 hPa 0,8 l/m 5,7 km/h W 3,4 C 4,4 C 3,2 km/h
27.03.2015 8,4 C 69 % 1017,5 hPa 0,0 l/m 4,1 km/h N-NW 2,5 C 7,6 C 2,3 km/h
28.03.2015 8,3 C 70 % 1019,3 hPa 0,0 l/m 7,8 km/h O-SO 2,6 C 6,1 C 4,3 km/h
29.03.2015 10,6 C 81 % 1009,7 hPa 1,7 l/m 22,9 km/h SW 7,4 C 3,7 C 12,7 km/h
30.03.2015 10,1 C 72 % 1007,1 hPa 7,0 l/m 8,1 km/h W-NW 5,0 C 7,8 C 4,5 km/h
31.03.2015 11,6 C 72 % 1009,0 hPa 1,7 l/m 28,8 km/h W 6,5 C 4,4 C 16,0 km/h
Min-Datum 12.03.15 02.03.15 30.03.15 8 Tage 01.03.15 - 02.03.15 26.03.15 01.03.15
Min-Zeit 04:53 12:53 05:51 - 00:53 - 12:53 23:51 00:53
Minimum -3,9 C 0 % 1000,6 hPa - 0,0 km/h - -60,0 C -4,5 C 0,0 km/h
Max-Datum 24.03.15 03.03.15 06.03.15 30.03.15 29.03.15 - 18.03.15 24.03.15 29.03.15
Max-Zeit 15:52 03:53 05:53 06:51 15:51 - 10:52 15:52 15:51
Maximum 25,9 C 87 % 1035,9 hPa 7,0 l/m 61,6 km/h
SW
- 10,4 C 25,9 C 34,2 km/h
SW
Durchschnitt 7,9 C 70 % 1017,8 hPa #17,0 l/m 4,3 km/h W-NW 2,3 C 6,8 C 2,4 km/h

Durchschnitt Minimum Temp.0,6 C
Durchschnitt Maximum Temp.17,8 C
www.sexauwetter.de